Time;durP1;ratioP1;P1;durP2;ratioP2;P2;SDS_P1;SDS_P2;PMS_P1;PMS_P2;Temp;Humidity;BMP_temperature;BMP_pressure;BME280_temperature;BME280_humidity;BME280_pressure;Samples;Min_cycle;Max_cycle;Signal;HPM_P1;HPM_P2
2022/04/22 00:00:05;;;;;;;24.25;20.95;;;;;;;;;;6216573;23;20428;-79
2022/04/22 00:02:34;;;;;;;23.52;20.98;;;;;;;;;;6216672;23;20011;-80
2022/04/22 00:05:00;;;;;;;26.90;21.75;;;;;;;;;;6217093;23;20017;-80
2022/04/22 00:10:11;;;;;;;25.48;21.35;;;;;;;;;;6216514;23;20380;-80
2022/04/22 00:12:38;;;;;;;22.83;20.35;;;;;;;;;;6216543;23;20001;-80
2022/04/22 00:15:05;;;;;;;22.95;20.52;;;;;;;;;;6216444;23;20001;-81
2022/04/22 00:17:31;;;;;;;24.48;19.83;;;;;;;;;;6189891;23;20012;-80
2022/04/22 00:19:57;;;;;;;23.10;20.63;;;;;;;;;;6216424;23;19997;-81
2022/04/22 00:22:23;;;;;;;21.67;19.33;;;;;;;;;;6216296;23;20047;-80
2022/04/22 00:24:49;;;;;;;21.15;18.85;;;;;;;;;;6189449;23;20004;-81
2022/04/22 00:27:16;;;;;;;21.95;19.65;;;;;;;;;;6216119;23;20001;-80
2022/04/22 00:29:42;;;;;;;20.88;18.70;;;;;;;;;;6216453;23;20467;-80
2022/04/22 00:32:10;;;;;;;23.52;19.00;;;;;;;;;;6216276;23;20075;-80
2022/04/22 00:34:37;;;;;;;22.40;18.95;;;;;;;;;;6189665;23;20004;-80
2022/04/22 00:37:05;;;;;;;20.33;17.08;;;;;;;;;;6216198;23;20000;-80
2022/04/22 00:39:31;;;;;;;18.98;16.30;;;;;;;;;;6189541;23;20343;-80
2022/04/22 00:42:00;;;;;;;17.33;15.52;;;;;;;;;;6189931;23;20009;-80
2022/04/22 00:44:26;;;;;;;19.30;15.85;;;;;;;;;;6189583;23;20337;-80
2022/04/22 00:46:52;;;;;;;19.27;16.23;;;;;;;;;;6189493;23;20001;-80
2022/04/22 00:49:18;;;;;;;19.17;16.58;;;;;;;;;;6216084;23;19997;-80
2022/04/22 00:51:44;;;;;;;18.65;16.65;;;;;;;;;;6216151;23;20023;-80
2022/04/22 00:54:13;;;;;;;18.10;15.15;;;;;;;;;;6224994;23;20023;-81
2022/04/22 00:56:39;;;;;;;15.68;13.93;;;;;;;;;;6219489;23;20331;-81
2022/04/22 00:59:08;;;;;;;21.27;18.10;;;;;;;;;;6246393;23;20078;-80
2022/04/22 01:01:35;;;;;;;26.05;21.55;;;;;;;;;;6246410;23;20057;-81
2022/04/22 01:12:17;;;;;;;26.65;21.30;;;;;;;;;;6246465;23;20030;-80
2022/04/22 01:14:43;;;;;;;22.52;20.10;;;;;;;;;;6219456;23;20007;-80
2022/04/22 01:17:09;;;;;;;22.25;19.95;;;;;;;;;;6246268;23;20008;-80
2022/04/22 01:19:35;;;;;;;22.05;19.55;;;;;;;;;;6219507;23;20004;-81
2022/04/22 01:22:02;;;;;;;27.08;20.20;;;;;;;;;;6219318;23;20370;-80
2022/04/22 01:24:28;;;;;;;23.10;20.58;;;;;;;;;;6246251;23;20054;-81
2022/04/22 01:27:00;;;;;;;22.15;19.60;;;;;;;;;;6246073;23;20078;-80
2022/04/22 01:29:26;;;;;;;22.08;19.70;;;;;;;;;;6246153;23;20000;-81
2022/04/22 01:31:52;;;;;;;24.55;21.95;;;;;;;;;;6246175;23;19996;-80
2022/04/22 01:34:19;;;;;;;25.00;22.13;;;;;;;;;;6219380;23;20332;-81
2022/04/22 01:36:47;;;;;;;23.27;20.50;;;;;;;;;;6246206;23;20301;-80
2022/04/22 01:39:13;;;;;;;24.27;20.80;;;;;;;;;;6221793;23;20032;-80
2022/04/22 01:41:41;;;;;;;22.38;19.98;;;;;;;;;;6221455;23;20369;-79
2022/04/22 01:44:07;;;;;;;23.75;20.35;;;;;;;;;;6248198;23;20007;-80
2022/04/22 01:46:33;;;;;;;23.38;20.60;;;;;;;;;;6221653;23;20004;-80
2022/04/22 01:48:59;;;;;;;24.13;20.33;;;;;;;;;;6248185;23;20000;-80
2022/04/22 01:51:25;;;;;;;24.88;21.65;;;;;;;;;;6248272;23;20051;-80
2022/04/22 01:53:51;;;;;;;24.48;21.73;;;;;;;;;;6247946;23;20019;-80
2022/04/22 01:56:18;;;;;;;22.67;20.10;;;;;;;;;;6248157;23;20055;-81
2022/04/22 01:58:44;;;;;;;22.30;18.73;;;;;;;;;;6248114;23;20023;-80
2022/04/22 02:01:10;;;;;;;22.63;20.23;;;;;;;;;;6248198;23;20000;-79
2022/04/22 02:03:36;;;;;;;19.50;16.88;;;;;;;;;;6248041;23;20039;-82
2022/04/22 02:06:04;;;;;;;19.17;16.02;;;;;;;;;;6221452;23;20090;-80
2022/04/22 02:08:31;;;;;;;20.50;16.45;;;;;;;;;;6248009;23;20000;-80
2022/04/22 02:10:59;;;;;;;23.05;17.98;;;;;;;;;;6248048;23;20000;-80
2022/04/22 02:13:25;;;;;;;21.15;17.55;;;;;;;;;;6248043;23;19996;-80
2022/04/22 02:15:51;;;;;;;21.70;19.25;;;;;;;;;;6247971;23;20007;-80
2022/04/22 02:18:18;;;;;;;21.88;18.80;;;;;;;;;;6221058;23;20308;-81
2022/04/22 02:20:44;;;;;;;20.58;18.38;;;;;;;;;;6247917;23;20024;-81
2022/04/22 02:23:11;;;;;;;22.25;19.38;;;;;;;;;;6247894;23;20451;-80
2022/04/22 02:25:37;;;;;;;23.63;20.25;;;;;;;;;;6247814;23;20007;-81
2022/04/22 02:30:48;;;;;;;25.05;21.90;;;;;;;;;;6247727;23;20060;-80
2022/04/22 02:33:14;;;;;;;28.33;24.00;;;;;;;;;;6247464;23;20030;-80
2022/04/22 02:35:40;;;;;;;29.25;23.40;;;;;;;;;;6247394;23;20087;-81
2022/04/22 02:38:06;;;;;;;27.50;22.63;;;;;;;;;;6247402;23;20083;-80
2022/04/22 02:46:13;;;;;;;28.85;22.63;;;;;;;;;;6247368;23;20455;-81
2022/04/22 02:48:39;;;;;;;29.23;25.52;;;;;;;;;;6247105;23;20534;-80
2022/04/22 02:51:05;;;;;;;28.63;24.95;;;;;;;;;;6220566;23;20056;-81
2022/04/22 02:53:31;;;;;;;25.17;21.83;;;;;;;;;;6247141;23;19996;-81
2022/04/22 02:55:58;;;;;;;25.30;22.25;;;;;;;;;;6247271;23;20054;-81
2022/04/22 02:58:25;;;;;;;27.17;22.35;;;;;;;;;;6220486;23;20031;-81
2022/04/22 03:00:54;;;;;;;27.33;22.05;;;;;;;;;;6247308;23;20075;-80
2022/04/22 03:03:20;;;;;;;31.05;22.40;;;;;;;;;;6247151;23;20344;-81
2022/04/22 03:05:48;;;;;;;27.23;22.42;;;;;;;;;;6247542;23;20004;-81
2022/04/22 03:08:14;;;;;;;23.63;20.88;;;;;;;;;;6247440;23;20007;-81
2022/04/22 03:10:40;;;;;;;21.23;19.05;;;;;;;;;;6247358;23;20007;-80
2022/04/22 03:13:06;;;;;;;22.45;19.20;;;;;;;;;;6247468;23;20497;-81
2022/04/22 03:15:33;;;;;;;21.90;18.95;;;;;;;;;;6247475;23;20000;-81
2022/04/22 03:18:00;;;;;;;24.63;20.02;;;;;;;;;;6247382;23;20004;-80
2022/04/22 03:20:26;;;;;;;22.05;19.42;;;;;;;;;;6247337;23;20000;-80
2022/04/22 03:22:52;;;;;;;28.23;20.90;;;;;;;;;;6220397;23;20014;-81
2022/04/22 03:25:20;;;;;;;24.73;21.85;;;;;;;;;;6220301;23;20008;-81
2022/04/22 03:27:47;;;;;;;26.90;22.55;;;;;;;;;;6220292;23;20477;-81
2022/04/22 03:30:14;;;;;;;23.98;20.83;;;;;;;;;;6246981;23;20000;-80
2022/04/22 03:32:42;;;;;;;43.15;34.33;;;;;;;;;;6220199;23;20466;-81
2022/04/22 03:35:09;;;;;;;40.45;31.85;;;;;;;;;;6247019;23;20054;-81
2022/04/22 03:37:35;;;;;;;24.23;19.45;;;;;;;;;;6220175;23;20000;-80
2022/04/22 03:40:01;;;;;;;21.40;18.88;;;;;;;;;;6246854;23;20054;-80
2022/04/22 03:42:28;;;;;;;18.90;16.17;;;;;;;;;;6247174;23;20023;-81
2022/04/22 03:44:56;;;;;;;18.77;16.85;;;;;;;;;;6246769;23;20018;-81
2022/04/22 03:47:23;;;;;;;18.42;15.68;;;;;;;;;;6220396;23;20011;-81
2022/04/22 03:49:49;;;;;;;17.25;15.20;;;;;;;;;;6246834;23;20486;-81
2022/04/22 03:52:15;;;;;;;16.58;14.77;;;;;;;;;;6247021;23;20000;-80
2022/04/22 03:54:41;;;;;;;19.10;15.77;;;;;;;;;;6246654;23;20394;-80
2022/04/22 03:59:54;;;;;;;22.83;20.23;;;;;;;;;;6246519;23;20081;-82
2022/04/22 04:02:21;;;;;;;21.85;19.42;;;;;;;;;;6220003;23;20066;-83
2022/04/22 04:04:50;;;;;;;24.35;20.90;;;;;;;;;;6220413;23;20031;-82
2022/04/22 04:07:17;;;;;;;22.27;19.58;;;;;;;;;;6246758;23;19996;-82
2022/04/22 04:17:57;;;;;;;23.50;20.90;;;;;;;;;;6246864;23;20336;-81
2022/04/22 04:23:20;;;;;;;24.08;20.98;;;;;;;;;;6246830;23;20332;-81
2022/04/22 04:25:47;;;;;;;22.80;20.23;;;;;;;;;;6246594;23;20071;-81
2022/04/22 04:28:15;;;;;;;21.50;18.40;;;;;;;;;;6246767;23;19996;-82
2022/04/22 04:30:41;;;;;;;22.58;19.58;;;;;;;;;;6247056;23;20007;-81
2022/04/22 04:33:07;;;;;;;24.50;19.30;;;;;;;;;;6246767;23;20024;-82
2022/04/22 04:35:34;;;;;;;21.20;18.88;;;;;;;;;;6246608;23;20000;-81
2022/04/22 04:38:01;;;;;;;18.77;16.73;;;;;;;;;;6246647;23;20008;-82
2022/04/22 04:40:27;;;;;;;19.65;17.52;;;;;;;;;;6246929;23;20000;-81
2022/04/22 04:42:53;;;;;;;19.92;17.83;;;;;;;;;;6246505;23;20011;-82
2022/04/22 04:45:20;;;;;;;20.92;17.98;;;;;;;;;;6219937;23;20012;-81
2022/04/22 04:47:46;;;;;;;25.13;22.15;;;;;;;;;;6219571;23;20007;-81
2022/04/22 04:50:13;;;;;;;26.27;23.27;;;;;;;;;;6246430;23;20328;-81
2022/04/22 04:52:40;;;;;;;26.73;22.75;;;;;;;;;;6246443;23;19996;-82
2022/04/22 04:55:08;;;;;;;28.98;24.15;;;;;;;;;;6219308;23;20027;-81
2022/04/22 04:57:34;;;;;;;24.60;20.88;;;;;;;;;;6246344;23;20004;-82
2022/04/22 05:00:01;;;;;;;23.45;18.40;;;;;;;;;;6195049;23;20023;-82
2022/04/22 05:02:28;;;;;;;20.38;17.70;;;;;;;;;;6219568;23;20035;-83
2022/04/22 05:04:54;;;;;;;19.73;16.58;;;;;;;;;;6246955;23;20000;-82
2022/04/22 05:07:20;;;;;;;16.65;14.55;;;;;;;;;;6219362;23;20394;-81
2022/04/22 05:09:46;;;;;;;15.27;13.55;;;;;;;;;;6219407;23;20340;-82
2022/04/22 05:12:12;;;;;;;14.75;13.25;;;;;;;;;;6219475;23;20004;-82
2022/04/22 05:14:38;;;;;;;16.23;14.35;;;;;;;;;;6246261;23;20356;-83
2022/04/22 05:17:05;;;;;;;14.82;13.20;;;;;;;;;;6246307;23;20004;-82
2022/04/22 05:19:31;;;;;;;15.07;13.10;;;;;;;;;;6219374;23;20067;-82
2022/04/22 05:21:57;;;;;;;13.52;12.05;;;;;;;;;;6246215;23;20067;-82
2022/04/22 05:24:23;;;;;;;13.98;11.77;;;;;;;;;;6219688;23;20004;-82
2022/04/22 05:26:51;;;;;;;13.60;11.43;;;;;;;;;;6219284;23;20004;-82
2022/04/22 05:34:49;;;;;;;12.63;10.75;;;;;;;;;;6246145;23;20061;-82
2022/04/22 05:37:18;;;;;;;11.57;10.38;;;;;;;;;;6246214;23;20003;-83
2022/04/22 05:39:46;;;;;;;12.57;9.93;;;;;;;;;;6219187;23;20000;-82
2022/04/22 05:42:12;;;;;;;14.25;11.25;;;;;;;;;;6246311;23;20004;-81
2022/04/22 05:44:39;;;;;;;12.75;11.20;;;;;;;;;;6246115;23;20004;-82
2022/04/22 05:47:06;;;;;;;13.00;10.27;;;;;;;;;;6245961;23;20011;-83
2022/04/22 05:49:32;;;;;;;12.82;11.10;;;;;;;;;;6219210;23;20054;-82
2022/04/22 05:51:58;;;;;;;13.50;11.38;;;;;;;;;;6219222;23;20304;-83
2022/04/22 05:54:27;;;;;;;11.38;10.27;;;;;;;;;;6245854;23;20016;-82
2022/04/22 05:56:53;;;;;;;12.30;10.38;;;;;;;;;;6219239;23;20012;-83
2022/04/22 05:59:22;;;;;;;12.20;10.65;;;;;;;;;;6219699;23;20000;-82
2022/04/22 06:01:48;;;;;;;13.32;10.70;;;;;;;;;;6246318;23;20000;-82
2022/04/22 06:04:17;;;;;;;12.30;10.82;;;;;;;;;;6219641;23;20477;-82
2022/04/22 06:06:43;;;;;;;11.80;10.60;;;;;;;;;;6246223;23;20015;-83
2022/04/22 06:11:56;;;;;;;11.85;10.65;;;;;;;;;;6246121;23;20016;-83
2022/04/22 06:14:22;;;;;;;11.43;9.77;;;;;;;;;;6219003;23;20004;-83
2022/04/22 06:16:48;;;;;;;15.88;11.25;;;;;;;;;;6246348;23;20000;-82
2022/04/22 06:19:14;;;;;;;14.80;11.55;;;;;;;;;;6246000;23;20428;-83
2022/04/22 06:21:40;;;;;;;13.48;11.73;;;;;;;;;;6219524;23;20008;-83
2022/04/22 06:24:06;;;;;;;13.40;10.23;;;;;;;;;;6247053;23;20079;-83
2022/04/22 06:26:32;;;;;;;11.35;10.25;;;;;;;;;;6220802;23;20028;-83
2022/04/22 06:29:01;;;;;;;13.43;10.93;;;;;;;;;;6220858;23;20535;-82
2022/04/22 06:31:29;;;;;;;10.57;9.57;;;;;;;;;;6221291;23;20009;-80
2022/04/22 06:33:57;;;;;;;13.15;10.32;;;;;;;;;;6220910;23;20331;-83
2022/04/22 06:36:29;;;;;;;11.02;9.48;;;;;;;;;;6247795;23;20004;-83
2022/04/22 06:38:58;;;;;;;13.95;12.23;;;;;;;;;;6247746;23;20450;-83
2022/04/22 06:47:08;;;;;;;;;;;;;;;;;;;;;
2022/04/22 06:49:34;;;;;;;13.35;11.93;;;;;;;;;;6247654;23;20479;-83
2022/04/22 06:52:03;;;;;;;60.40;32.47;;;;;;;;;;6220784;23;20004;-83
2022/04/22 06:54:29;;;;;;;20.15;14.27;;;;;;;;;;6247369;23;20436;-84
2022/04/22 06:56:55;;;;;;;33.75;26.60;;;;;;;;;;6220694;23;20444;-83
2022/04/22 06:59:23;;;;;;;16.77;12.05;;;;;;;;;;6247438;23;20328;-83
2022/04/22 07:01:49;;;;;;;10.00;9.05;;;;;;;;;;6247607;23;20004;-83
2022/04/22 07:04:16;;;;;;;10.73;8.45;;;;;;;;;;6247575;23;20028;-82
2022/04/22 07:06:42;;;;;;;10.20;9.00;;;;;;;;;;6247292;23;20114;-82
2022/04/22 07:09:11;;;;;;;9.40;8.38;;;;;;;;;;6220536;23;20014;-82
2022/04/22 07:11:38;;;;;;;10.77;9.68;;;;;;;;;;6220511;23;20004;-83
2022/04/22 07:14:12;;;;;;;12.57;9.77;;;;;;;;;;6220515;23;19997;-83
2022/04/22 07:16:43;;;;;;;13.43;9.50;;;;;;;;;;6247405;23;20015;-82
2022/04/22 07:19:09;;;;;;;12.32;9.32;;;;;;;;;;6247345;23;20081;-82
2022/04/22 07:21:39;;;;;;;10.23;9.18;;;;;;;;;;6247273;23;20004;-83
2022/04/22 07:24:05;;;;;;;10.18;8.52;;;;;;;;;;6247248;23;20023;-82
2022/04/22 07:26:33;;;;;;;9.07;8.18;;;;;;;;;;6220579;23;20008;-82
2022/04/22 07:29:03;;;;;;;9.25;8.35;;;;;;;;;;6220277;23;20035;-82
2022/04/22 07:31:31;;;;;;;10.57;9.07;;;;;;;;;;6220605;23;19996;-82
2022/04/22 07:33:58;;;;;;;11.15;8.50;;;;;;;;;;6221073;23;20077;-81
2022/04/22 07:36:24;;;;;;;9.60;8.30;;;;;;;;;;6246545;23;20007;-82
2022/04/22 07:38:50;;;;;;;10.07;8.27;;;;;;;;;;6247167;23;20367;-82
2022/04/22 07:41:18;;;;;;;10.48;8.73;;;;;;;;;;6247183;23;20000;-82
2022/04/22 07:49:20;;;;;;;9.23;7.82;;;;;;;;;;6247185;23;20062;-83
2022/04/22 07:51:46;;;;;;;8.90;7.38;;;;;;;;;;6247063;23;20042;-81
2022/04/22 07:54:12;;;;;;;9.00;8.10;;;;;;;;;;6219891;23;20032;-84
2022/04/22 07:56:41;;;;;;;8.63;7.72;;;;;;;;;;6246937;23;20000;-82
2022/04/22 07:59:08;;;;;;;8.82;7.82;;;;;;;;;;6247020;23;19996;-82
2022/04/22 08:01:36;;;;;;;8.23;7.53;;;;;;;;;;6246891;23;20408;-82
2022/04/22 08:04:09;;;;;;;9.02;6.50;;;;;;;;;;6220025;23;20050;-83
2022/04/22 08:06:37;;;;;;;8.32;7.05;;;;;;;;;;6219847;23;20011;-82
2022/04/22 08:09:14;;;;;;;8.15;6.43;;;;;;;;;;6219977;23;20087;-81
2022/04/22 08:11:42;;;;;;;8.07;6.25;;;;;;;;;;6246791;23;20023;-81
2022/04/22 08:14:11;;;;;;;6.60;5.93;;;;;;;;;;6220603;23;20084;-79
2022/04/22 08:16:37;;;;;;;7.22;5.93;;;;;;;;;;6220544;23;20004;-79
2022/04/22 08:19:05;;;;;;;5.47;5.05;;;;;;;;;;6246712;23;20000;-80
2022/04/22 08:21:35;;;;;;;6.85;5.50;;;;;;;;;;6246496;23;20054;-80
2022/04/22 08:24:01;;;;;;;5.90;5.30;;;;;;;;;;6246720;23;20441;-80
2022/04/22 08:26:31;;;;;;;10.00;5.63;;;;;;;;;;6246537;23;20008;-79
2022/04/22 08:28:57;;;;;;;7.85;4.97;;;;;;;;;;6219841;23;20001;-79
2022/04/22 08:31:23;;;;;;;6.65;5.38;;;;;;;;;;6219824;23;20096;-80
2022/04/22 08:33:51;;;;;;;6.25;5.55;;;;;;;;;;6246587;23;20049;-79
2022/04/22 08:36:18;;;;;;;7.80;4.95;;;;;;;;;;6220199;23;20057;-79
2022/04/22 08:38:45;;;;;;;5.10;4.45;;;;;;;;;;6246706;23;20428;-80
2022/04/22 08:41:11;;;;;;;7.22;4.22;;;;;;;;;;6219637;23;20012;-79
2022/04/22 08:43:38;;;;;;;8.82;4.22;;;;;;;;;;6246696;23;20011;-80
2022/04/22 08:46:04;;;;;;;8.05;4.25;;;;;;;;;;6219363;23;20012;-81
2022/04/22 08:51:16;;;;;;;6.30;3.85;;;;;;;;;;6246376;23;20455;-78
2022/04/22 08:53:43;;;;;;;6.10;3.92;;;;;;;;;;6219537;23;20011;-80
2022/04/22 08:56:11;;;;;;;6.80;4.15;;;;;;;;;;6246078;23;20000;-78
2022/04/22 08:58:37;;;;;;;6.28;4.00;;;;;;;;;;6246415;23;20001;-77
2022/04/22 09:01:04;;;;;;;6.30;3.38;;;;;;;;;;6219379;23;20008;-79
2022/04/22 09:03:32;;;;;;;7.20;3.83;;;;;;;;;;6246327;23;20015;-79
2022/04/22 09:06:02;;;;;;;6.85;3.80;;;;;;;;;;6246327;23;20079;-80
2022/04/22 09:08:28;;;;;;;4.95;4.07;;;;;;;;;;6219386;23;20004;-79
2022/04/22 09:10:58;;;;;;;7.85;3.90;;;;;;;;;;6246394;23;20003;-79
2022/04/22 09:13:25;;;;;;;6.53;3.70;;;;;;;;;;6246207;23;20550;-80
2022/04/22 09:15:51;;;;;;;5.53;4.18;;;;;;;;;;6246357;23;20000;-78
2022/04/22 09:18:17;;;;;;;8.48;3.78;;;;;;;;;;6246251;23;20049;-79
2022/04/22 09:20:43;;;;;;;7.50;3.92;;;;;;;;;;6246332;23;20011;-83
2022/04/22 09:23:28;;;;;;;7.40;3.63;;;;;;;;;;6246203;23;20000;-78
2022/04/22 09:25:54;;;;;;;5.47;3.80;;;;;;;;;;6246017;23;20018;-79
2022/04/22 09:28:20;;;;;;;10.70;4.90;;;;;;;;;;6246131;23;20000;-79
2022/04/22 09:30:55;;;;;;;5.00;4.43;;;;;;;;;;6246267;23;20324;-77
2022/04/22 09:33:21;;;;;;;6.78;4.03;;;;;;;;;;6246132;23;20079;-78
2022/04/22 09:44:14;;;;;;;8.25;3.75;;;;;;;;;;6246029;23;20015;-79
2022/04/22 09:46:40;;;;;;;6.00;3.65;;;;;;;;;;6219070;23;20400;-80
2022/04/22 09:49:09;;;;;;;8.43;3.80;;;;;;;;;;6246660;23;20000;-78
2022/04/22 09:51:36;;;;;;;7.35;3.47;;;;;;;;;;6246237;23;20059;-79
2022/04/22 09:54:06;;;;;;;5.00;3.60;;;;;;;;;;6245846;23;20012;-78
2022/04/22 09:56:33;;;;;;;5.78;4.43;;;;;;;;;;6246044;23;20127;-80
2022/04/22 09:59:00;;;;;;;6.13;3.80;;;;;;;;;;6247055;23;20000;-82
2022/04/22 10:01:26;;;;;;;8.75;4.03;;;;;;;;;;6248008;23;20451;-78
2022/04/22 10:03:53;;;;;;;5.88;3.95;;;;;;;;;;6248086;23;20007;-79
2022/04/22 10:06:19;;;;;;;5.13;3.58;;;;;;;;;;6247755;23;20001;-81
2022/04/22 10:08:46;;;;;;;8.60;3.80;;;;;;;;;;6248062;23;19992;-79
2022/04/22 10:11:15;;;;;;;5.55;4.15;;;;;;;;;;6247935;23;20075;-79
2022/04/22 10:13:42;;;;;;;6.18;3.75;;;;;;;;;;6247996;23;20061;-79
2022/04/22 10:16:09;;;;;;;7.85;3.42;;;;;;;;;;6247885;23;20083;-81
2022/04/22 10:18:36;;;;;;;4.15;3.22;;;;;;;;;;6247960;23;20004;-80
2022/04/22 10:21:03;;;;;;;6.43;3.63;;;;;;;;;;6248099;23;20004;-78
2022/04/22 10:23:30;;;;;;;5.18;2.95;;;;;;;;;;6248076;23;20010;-80
2022/04/22 10:25:57;;;;;;;5.07;3.35;;;;;;;;;;6247909;23;20007;-80
2022/04/22 10:28:24;;;;;;;6.63;3.63;;;;;;;;;;6221233;23;20308;-81
2022/04/22 10:30:52;;;;;;;4.72;3.10;;;;;;;;;;6220962;23;20004;-79
2022/04/22 10:33:19;;;;;;;3.95;3.15;;;;;;;;;;6247745;23;20004;-81
2022/04/22 10:35:45;;;;;;;6.53;3.40;;;;;;;;;;6247750;23;20000;-81
2022/04/22 10:38:27;;;;;;;4.65;3.78;;;;;;;;;;6247752;23;20004;-81
2022/04/22 10:40:54;;;;;;;7.95;3.60;;;;;;;;;;6247683;23;20011;-81
2022/04/22 10:43:20;;;;;;;7.95;4.70;;;;;;;;;;6248044;23;20431;-80
2022/04/22 10:48:31;;;;;;;5.60;3.50;;;;;;;;;;6248166;23;20015;-80
2022/04/22 10:50:59;;;;;;;9.32;3.75;;;;;;;;;;6247648;23;20006;-78
2022/04/22 10:53:37;;;;;;;6.15;4.20;;;;;;;;;;6247614;23;19996;-81
2022/04/22 10:56:22;;;;;;;5.07;3.90;;;;;;;;;;6247486;23;20016;-80
2022/04/22 10:58:48;;;;;;;9.18;5.53;;;;;;;;;;6247659;23;20012;-78
2022/04/22 11:01:29;;;;;;;8.20;4.55;;;;;;;;;;6247538;23;20079;-79
2022/04/22 11:03:56;;;;;;;11.10;5.22;;;;;;;;;;6247382;23;20489;-80
2022/04/22 11:06:22;;;;;;;7.97;3.95;;;;;;;;;;6247508;23;20000;-80
2022/04/22 11:08:59;;;;;;;5.00;3.60;;;;;;;;;;6220892;23;20000;-81
2022/04/22 11:11:25;;;;;;;5.28;3.22;;;;;;;;;;6220517;23;20301;-80
2022/04/22 11:13:52;;;;;;;4.28;3.25;;;;;;;;;;6247452;23;20427;-81
2022/04/22 11:16:26;;;;;;;5.60;3.40;;;;;;;;;;6220796;23;20435;-79
2022/04/22 11:19:12;;;;;;;7.45;3.28;;;;;;;;;;6247366;23;20455;-79
2022/04/22 11:21:39;;;;;;;6.50;3.33;;;;;;;;;;6247319;23;20023;-81
2022/04/22 11:24:15;;;;;;;6.40;3.13;;;;;;;;;;6247319;23;20328;-81
2022/04/22 11:26:42;;;;;;;3.97;3.17;;;;;;;;;;6247148;23;20428;-81
2022/04/22 11:29:10;;;;;;;6.00;3.30;;;;;;;;;;6247300;23;20031;-80
2022/04/22 11:31:36;;;;;;;7.18;3.38;;;;;;;;;;6247368;23;20007;-80
2022/04/22 11:34:09;;;;;;;6.25;3.28;;;;;;;;;;6247221;23;20059;-81
2022/04/22 11:36:45;;;;;;;6.80;3.15;;;;;;;;;;6247301;23;20004;-80
2022/04/22 11:39:15;;;;;;;5.32;3.17;;;;;;;;;;6247073;23;20305;-81
2022/04/22 11:41:57;;;;;;;4.18;3.13;;;;;;;;;;6247088;23;20004;-82
2022/04/22 11:44:29;;;;;;;5.63;3.47;;;;;;;;;;6247112;23;20370;-80
2022/04/22 11:46:55;;;;;;;5.70;3.22;;;;;;;;;;6246886;22;19999;-77
2022/04/22 11:49:22;;;;;;;4.78;3.55;;;;;;;;;;6246593;23;20015;-78
2022/04/22 11:51:55;;;;;;;4.57;3.47;;;;;;;;;;6247012;23;20000;-77
2022/04/22 11:54:22;;;;;;;5.75;4.18;;;;;;;;;;6246995;23;20016;-79
2022/04/22 11:56:50;;;;;;;6.10;4.20;;;;;;;;;;6246766;23;20006;-80
2022/04/22 11:59:19;;;;;;;6.55;4.05;;;;;;;;;;6246863;23;20079;-81
2022/04/22 12:05:32;;;;;;;38.58;29.42;;;;;;;;;;6246936;23;20115;-80
2022/04/22 12:10:12;;;;;;;;;;;;;;;;;;6247386;23;20011;-80
2022/04/22 12:12:48;;;;;;;7.85;4.30;;;;;;;;;;6246574;23;19900;-79
2022/04/22 12:15:18;;;;;;;5.20;3.60;;;;;;;;;;6246721;23;20000;-78
2022/04/22 12:17:45;;;;;;;5.70;3.50;;;;;;;;;;6247043;23;20019;-77
2022/04/22 12:20:11;;;;;;;5.40;3.35;;;;;;;;;;6246575;23;20051;-79
2022/04/22 12:22:38;;;;;;;13.27;8.02;;;;;;;;;;6246390;23;19999;-80
2022/04/22 12:25:23;;;;;;;9.73;7.25;;;;;;;;;;6246542;23;20000;-80
2022/04/22 12:28:08;;;;;;;7.20;5.10;;;;;;;;;;6246581;23;20005;-80
2022/04/22 12:30:38;;;;;;;8.07;4.47;;;;;;;;;;6219695;23;20083;-81
2022/04/22 12:33:05;;;;;;;6.55;5.63;;;;;;;;;;6220072;23;20004;-81
2022/04/22 12:35:31;;;;;;;8.18;4.97;;;;;;;;;;6246561;23;20074;-81
2022/04/22 12:37:58;;;;;;;5.45;3.13;;;;;;;;;;6246585;23;20004;-80
2022/04/22 12:40:26;;;;;;;5.97;3.88;;;;;;;;;;6246510;23;20451;-79
2022/04/22 12:42:52;;;;;;;9.40;4.22;;;;;;;;;;6246539;23;20049;-80
2022/04/22 12:54:11;;;;;;;7.57;2.90;;;;;;;;;;6246276;23;20047;-81
2022/04/22 12:56:38;;;;;;;5.82;3.15;;;;;;;;;;6246442;23;20075;-81
2022/04/22 12:59:06;;;;;;;9.32;6.10;;;;;;;;;;6246249;23;19996;-81
2022/04/22 13:01:50;;;;;;;6.60;5.28;;;;;;;;;;6246259;23;20032;-81
2022/04/22 13:04:22;;;;;;;6.93;4.22;;;;;;;;;;6246334;23;20059;-81
2022/04/22 13:06:48;;;;;;;5.25;2.90;;;;;;;;;;6246195;23;20028;-82
2022/04/22 13:09:17;;;;;;;5.05;2.80;;;;;;;;;;6246181;23;20000;-81
2022/04/22 13:11:43;;;;;;;3.92;2.67;;;;;;;;;;6246588;23;20027;-82
2022/04/22 13:14:11;;;;;;;4.55;3.08;;;;;;;;;;6246197;23;20031;-81
2022/04/22 13:16:38;;;;;;;7.25;3.10;;;;;;;;;;6246350;23;20058;-81
2022/04/22 13:19:04;;;;;;;5.85;2.67;;;;;;;;;;6246200;23;20000;-81
2022/04/22 13:21:30;;;;;;;4.28;2.75;;;;;;;;;;6246131;23;20004;-80
2022/04/22 13:23:56;;;;;;;3.90;2.40;;;;;;;;;;6246185;23;20427;-80
2022/04/22 13:26:23;;;;;;;6.90;3.22;;;;;;;;;;6246108;23;20058;-79
2022/04/22 13:28:50;;;;;;;5.38;2.83;;;;;;;;;;6246138;23;20000;-82
2022/04/22 13:31:17;;;;;;;6.30;2.92;;;;;;;;;;6219272;23;20336;-80
2022/04/22 13:33:43;;;;;;;5.70;2.83;;;;;;;;;;6246170;23;20007;-78
2022/04/22 13:36:11;;;;;;;5.90;2.83;;;;;;;;;;6246125;23;20000;-80
2022/04/22 13:38:38;;;;;;;15.15;9.85;;;;;;;;;;6219319;23;20106;-80
2022/04/22 13:41:07;;;;;;;6.57;4.63;;;;;;;;;;6246076;23;20054;-80
2022/04/22 13:43:36;;;;;;;5.38;3.30;;;;;;;;;;6246211;23;20333;-80
2022/04/22 13:54:18;;;;;;;4.88;3.30;;;;;;;;;;6246022;23;20078;-80
2022/04/22 13:56:44;;;;;;;6.78;2.88;;;;;;;;;;6246012;23;20067;-82
2022/04/22 13:59:10;;;;;;;5.68;3.17;;;;;;;;;;6246184;23;20079;-78
2022/04/22 14:01:37;;;;;;;5.97;3.53;;;;;;;;;;6246201;23;19996;-79
2022/04/22 14:04:03;;;;;;;5.78;3.13;;;;;;;;;;6245896;23;20008;-81
2022/04/22 14:06:29;;;;;;;5.72;3.35;;;;;;;;;;6245857;23;20067;-80
2022/04/22 14:08:55;;;;;;;3.85;2.75;;;;;;;;;;6245930;23;20425;-79
2022/04/22 14:11:22;;;;;;;6.90;3.53;;;;;;;;;;6245916;23;19996;-79
2022/04/22 14:13:48;;;;;;;6.47;3.85;;;;;;;;;;6245897;23;20007;-79
2022/04/22 14:16:14;;;;;;;8.15;4.10;;;;;;;;;;6245938;23;20073;-81
2022/04/22 14:18:40;;;;;;;7.82;4.28;;;;;;;;;;6245843;23;20023;-79
2022/04/22 14:21:06;;;;;;;7.75;4.70;;;;;;;;;;6245833;23;20117;-80
2022/04/22 14:23:32;;;;;;;7.75;3.80;;;;;;;;;;6245891;23;20019;-80
2022/04/22 14:25:59;;;;;;;6.63;3.80;;;;;;;;;;6245703;23;20004;-80
2022/04/22 14:28:25;;;;;;;6.78;5.15;;;;;;;;;;6245890;23;20027;-82
2022/04/22 14:30:52;;;;;;;7.72;4.82;;;;;;;;;;6219471;23;20000;-83
2022/04/22 14:33:18;;;;;;;7.97;5.18;;;;;;;;;;6245830;23;19997;-80
2022/04/22 14:35:44;;;;;;;6.97;3.83;;;;;;;;;;6246241;23;20138;-80
2022/04/22 14:38:11;;;;;;;5.38;3.83;;;;;;;;;;6245879;23;20451;-81
2022/04/22 14:40:37;;;;;;;7.30;5.38;;;;;;;;;;6245827;23;19996;-80
2022/04/22 14:43:06;;;;;;;27.10;20.85;;;;;;;;;;6218929;23;20379;-81
2022/04/22 14:45:33;;;;;;;23.58;18.90;;;;;;;;;;6246782;23;20079;-78
2022/04/22 14:47:59;;;;;;;32.65;23.77;;;;;;;;;;6247865;23;20023;-83
2022/04/22 14:50:26;;;;;;;14.55;10.05;;;;;;;;;;6247567;23;20027;-79
2022/04/22 14:52:53;;;;;;;8.30;4.47;;;;;;;;;;6247563;23;20001;-78
2022/04/22 14:55:19;;;;;;;6.75;4.47;;;;;;;;;;6247262;23;20012;-79
2022/04/22 14:57:46;;;;;;;5.70;4.43;;;;;;;;;;6247505;23;20000;-80
2022/04/22 15:00:12;;;;;;;5.20;4.20;;;;;;;;;;6247579;23;20080;-78
2022/04/22 15:02:39;;;;;;;22.52;17.40;;;;;;;;;;6247446;23;20000;-80
2022/04/22 15:05:08;;;;;;;7.10;4.95;;;;;;;;;;6247509;23;20007;-78
2022/04/22 15:07:35;;;;;;;4.35;3.65;;;;;;;;;;6247267;23;20028;-79
2022/04/22 15:10:02;;;;;;;5.13;3.80;;;;;;;;;;6247400;23;20340;-80
2022/04/22 15:12:29;;;;;;;6.28;4.85;;;;;;;;;;6247405;23;20018;-79
2022/04/22 15:14:55;;;;;;;11.00;8.40;;;;;;;;;;6247414;23;20007;-79
2022/04/22 15:24:09;;;;;;;6.40;4.88;;;;;;;;;;6247283;23;20032;-82
2022/04/22 15:25:37;;;;;;;;;;;;;;;;;;6247799;23;20019;-78
2022/04/22 15:28:03;;;;;;;6.10;5.38;;;;;;;;;;6247746;23;19900;-77
2022/04/22 15:30:48;;;;;;;7.43;5.15;;;;;;;;;;6220159;23;20321;-80
2022/04/22 15:33:14;;;;;;;9.57;4.47;;;;;;;;;;6247332;23;20008;-78
2022/04/22 15:35:40;;;;;;;8.70;5.45;;;;;;;;;;6247201;23;20008;-78
2022/04/22 15:38:06;;;;;;;7.75;5.38;;;;;;;;;;6247193;23;20000;-76
2022/04/22 15:40:32;;;;;;;6.07;5.05;;;;;;;;;;6247119;23;20043;-79
2022/04/22 15:42:59;;;;;;;6.70;5.07;;;;;;;;;;6247139;23;20022;-77
2022/04/22 15:45:25;;;;;;;6.15;5.30;;;;;;;;;;6247240;23;20339;-77
2022/04/22 15:47:51;;;;;;;6.78;4.78;;;;;;;;;;6247238;23;20408;-77
2022/04/22 15:50:17;;;;;;;7.57;6.03;;;;;;;;;;6247178;23;20012;-77
2022/04/22 15:52:43;;;;;;;9.02;6.18;;;;;;;;;;6219924;23;20004;-78
2022/04/22 15:55:10;;;;;;;10.20;5.50;;;;;;;;;;6246658;23;20340;-77
2022/04/22 15:57:37;;;;;;;6.15;5.55;;;;;;;;;;6246567;23;20000;-78
2022/04/22 16:00:04;;;;;;;11.15;8.27;;;;;;;;;;6246855;23;20000;-78
2022/04/22 16:02:31;;;;;;;7.15;6.00;;;;;;;;;;6219992;23;20070;-79
2022/04/22 16:04:59;;;;;;;8.27;6.60;;;;;;;;;;6246886;23;20328;-77
2022/04/22 16:07:25;;;;;;;8.65;6.45;;;;;;;;;;6246774;23;20000;-79
2022/04/22 16:09:51;;;;;;;6.70;6.00;;;;;;;;;;6246786;23;20085;-77